Time;durP1;ratioP1;P1;durP2;ratioP2;P2;SDS_P1;SDS_P2;PMS_P1;PMS_P2;Temp;Humidity;BMP_temperature;BMP_pressure;BME280_temperature;BME280_humidity;BME280_pressure;Samples;Min_cycle;Max_cycle;Signal;HPM_P1;HPM_P2
2023/10/07 00:00:28;;;;;;;17.13;5.78;;;16.70;99.90;;;;;;4998715;28;20385;-44
2023/10/07 00:02:59;;;;;;;20.98;5.95;;;16.70;99.90;;;;;;5010914;28;20524;-46
2023/10/07 00:05:40;;;;;;;21.42;6.22;;;16.70;99.90;;;;;;5020479;28;20329;-49
2023/10/07 00:08:08;;;;;;;20.70;6.57;;;16.80;99.90;;;;;;5019686;28;20505;-45
2023/10/07 00:10:37;;;;;;;22.95;6.88;;;16.80;99.90;;;;;;5020173;28;20167;-47
2023/10/07 00:13:04;;;;;;;23.65;6.28;;;16.80;99.90;;;;;;5009502;28;20053;-47
2023/10/07 00:15:30;;;;;;;18.75;6.00;;;16.80;99.90;;;;;;5019665;28;20122;-45
2023/10/07 00:18:06;;;;;;;15.23;6.10;;;16.80;99.90;;;;;;5019130;28;20572;-46
2023/10/07 00:20:33;;;;;;;18.08;5.32;;;16.80;99.90;;;;;;5019544;28;20041;-45
2023/10/07 00:23:01;;;;;;;22.73;6.13;;;16.80;99.90;;;;;;5004896;28;20072;-46
2023/10/07 00:25:30;;;;;;;15.77;6.20;;;16.80;99.90;;;;;;5018125;28;20471;-45
2023/10/07 00:27:57;;;;;;;24.20;6.65;;;16.80;99.90;;;;;;5019683;28;20511;-46
2023/10/07 00:30:27;;;;;;;17.67;5.63;;;16.80;99.90;;;;;;5019471;28;20065;-47
2023/10/07 00:32:55;;;;;;;22.48;6.10;;;16.80;99.90;;;;;;5018936;28;20133;-44
2023/10/07 00:35:27;;;;;;;18.88;6.30;;;16.90;99.90;;;;;;5019399;28;20522;-45
2023/10/07 00:37:53;;;;;;;18.27;5.87;;;16.80;99.90;;;;;;5020062;28;20079;-44
2023/10/07 00:40:33;;;;;;;19.42;6.40;;;16.90;99.90;;;;;;5020246;28;20128;-44
2023/10/07 00:42:58;;;;;;;17.33;5.80;;;16.90;99.90;;;;;;5019013;28;20045;-45
2023/10/07 00:45:28;;;;;;;18.23;7.03;;;16.90;99.90;;;;;;5001745;28;20065;-45
2023/10/07 00:48:00;;;;;;;15.18;5.80;;;16.90;99.90;;;;;;5019790;28;20077;-46
2023/10/07 00:50:27;;;;;;;20.13;5.97;;;16.90;99.90;;;;;;5001891;28;20678;-47
2023/10/07 00:55:30;;;;;;;19.45;6.25;;;17.00;99.90;;;;;;5020034;28;20046;-46
2023/10/07 00:58:17;;;;;;;19.42;6.22;;;17.00;99.90;;;;;;5019467;28;20116;-45
2023/10/07 01:00:47;;;;;;;14.15;5.85;;;17.00;99.90;;;;;;5003364;28;20089;-46
2023/10/07 01:08:35;;;;;;;14.10;5.40;;;17.00;99.90;;;;;;5005445;28;20056;-47
2023/10/07 01:13:44;;;;;;;14.85;5.05;;;17.10;99.90;;;;;;5022552;28;20080;-46
2023/10/07 01:16:13;;;;;;;14.85;5.30;;;17.10;99.90;;;;;;5005360;28;20492;-48
2023/10/07 01:18:39;;;;;;;19.90;6.20;;;17.10;99.90;;;;;;5023272;28;20133;-45
2023/10/07 01:21:11;;;;;;;20.67;5.50;;;17.10;99.90;;;;;;5023185;28;20152;-47
2023/10/07 01:23:39;;;;;;;16.80;4.85;;;17.10;99.90;;;;;;5004631;28;20107;-48
2023/10/07 01:26:14;;;;;;;12.85;5.15;;;17.10;99.90;;;;;;5022765;28;20045;-46
2023/10/07 01:28:40;;;;;;;13.98;5.63;;;17.10;99.90;;;;;;5022659;28;20065;-49
2023/10/07 01:31:18;;;;;;;13.10;5.35;;;17.10;99.90;;;;;;5005223;28;20041;-45
2023/10/07 01:33:47;;;;;;;16.88;5.22;;;17.10;99.90;;;;;;5022226;28;20044;-45
2023/10/07 01:36:20;;;;;;;17.85;6.07;;;17.10;99.90;;;;;;5005133;28;20163;-47
2023/10/07 01:38:52;;;;;;;17.40;5.28;;;17.10;99.90;;;;;;4998869;28;20049;-46
2023/10/07 01:41:27;;;;;;;18.90;5.57;;;17.10;99.90;;;;;;5023422;28;20048;-45
2023/10/07 01:43:58;;;;;;;14.85;4.82;;;17.10;99.90;;;;;;5004126;28;20406;-48
2023/10/07 01:46:29;;;;;;;16.08;5.03;;;17.00;99.90;;;;;;5023521;28;20045;-45
2023/10/07 01:49:06;;;;;;;14.15;5.45;;;17.00;99.90;;;;;;5022700;28;20441;-45
2023/10/07 01:51:32;;;;;;;14.70;5.45;;;17.00;99.90;;;;;;4988631;28;20500;-46
2023/10/07 01:54:03;;;;;;;18.08;6.03;;;17.00;99.90;;;;;;5003635;28;20044;-49
2023/10/07 01:56:29;;;;;;;17.63;5.20;;;17.10;99.90;;;;;;5021945;28;20488;-44
2023/10/07 01:59:03;;;;;;;15.60;5.18;;;17.00;99.90;;;;;;5004507;28;20049;-46
2023/10/07 02:01:29;;;;;;;12.40;5.03;;;17.00;99.90;;;;;;5022289;28;20045;-44
2023/10/07 02:03:59;;;;;;;14.15;5.50;;;17.00;99.90;;;;;;4994847;28;20099;-48
2023/10/07 02:06:26;;;;;;;17.92;5.60;;;17.00;99.90;;;;;;5022050;28;20046;-46
2023/10/07 02:08:55;;;;;;;13.05;5.43;;;17.10;99.90;;;;;;5004176;28;20056;-47
2023/10/07 02:11:30;;;;;;;14.15;5.72;;;17.10;99.90;;;;;;5004276;28;20057;-49
2023/10/07 02:13:56;;;;;;;14.45;4.70;;;17.00;99.90;;;;;;5003026;28;20037;-49
2023/10/07 02:16:25;;;;;;;19.90;6.30;;;17.00;99.90;;;;;;5021908;28;20103;-45
2023/10/07 02:18:51;;;;;;;15.43;5.13;;;17.00;99.90;;;;;;5021896;28;20483;-46
2023/10/07 02:21:20;;;;;;;16.83;5.35;;;17.10;99.90;;;;;;5021667;28;20120;-47
2023/10/07 02:23:47;;;;;;;16.60;5.18;;;17.00;99.90;;;;;;5020546;28;20073;-46
2023/10/07 02:26:19;;;;;;;12.93;4.68;;;17.00;99.90;;;;;;5003656;28;20050;-45
2023/10/07 02:28:50;;;;;;;11.93;4.20;;;17.00;99.90;;;;;;5021165;28;20516;-45
2023/10/07 02:31:20;;;;;;;15.32;4.70;;;17.00;99.90;;;;;;5022127;28;20155;-44
2023/10/07 02:33:53;;;;;;;14.35;5.38;;;17.00;99.90;;;;;;5020618;28;20516;-46
2023/10/07 02:36:28;;;;;;;12.65;4.63;;;17.00;99.90;;;;;;5003607;28;20488;-45
2023/10/07 02:39:18;;;;;;;14.25;5.05;;;17.00;99.90;;;;;;5003315;28;20041;-45
2023/10/07 02:41:46;;;;;;;13.93;4.82;;;16.90;99.90;;;;;;5005687;28;20752;-46
2023/10/07 02:44:16;;;;;;;17.45;5.07;;;16.90;99.90;;;;;;5002891;28;20821;-45
2023/10/07 02:46:42;;;;;;;18.13;4.57;;;16.90;99.90;;;;;;5002901;28;20055;-46
2023/10/07 02:49:10;;;;;;;15.60;4.65;;;16.90;99.90;;;;;;5021088;28;20269;-49
2023/10/07 02:51:46;;;;;;;15.52;6.20;;;16.90;99.90;;;;;;5021209;28;20083;-46
2023/10/07 02:54:18;;;;;;;17.73;5.75;;;17.00;99.90;;;;;;5002498;28;20071;-49
2023/10/07 02:56:56;;;;;;;14.00;5.38;;;17.00;99.90;;;;;;5020883;28;20045;-49
2023/10/07 02:59:29;;;;;;;15.25;4.70;;;17.00;99.90;;;;;;5003435;28;20037;-47
2023/10/07 03:02:36;;;;;;;15.43;5.75;;;17.00;99.90;;;;;;4987880;28;20049;-50
2023/10/07 03:05:13;;;;;;;15.77;5.20;;;17.00;99.90;;;;;;5018050;28;20113;-48
2023/10/07 03:07:49;;;;;;;19.52;5.00;;;17.00;99.90;;;;;;5003221;28;20570;-46
2023/10/07 03:10:18;;;;;;;16.27;5.15;;;17.00;99.90;;;;;;5003225;28;20081;-48
2023/10/07 03:12:49;;;;;;;17.20;5.30;;;17.00;99.90;;;;;;4985731;28;20049;-46
2023/10/07 03:15:41;;;;;;;15.38;5.10;;;17.00;99.90;;;;;;5002829;28;20485;-46
2023/10/07 03:18:21;;;;;;;16.55;5.00;;;17.00;99.90;;;;;;5008705;28;20124;-45
2023/10/07 03:20:59;;;;;;;17.00;5.22;;;17.00;99.90;;;;;;5002501;28;20053;-46
2023/10/07 03:23:26;;;;;;;17.25;5.18;;;17.00;99.90;;;;;;5002516;28;20041;-47
2023/10/07 03:28:36;;;;;;;21.35;5.32;;;17.00;99.90;;;;;;5020449;28;20107;-47
2023/10/07 03:31:13;;;;;;;22.65;6.40;;;17.00;99.90;;;;;;5002521;28;20045;-48
2023/10/07 03:33:44;;;;;;;16.92;5.03;;;17.00;99.90;;;;;;5001780;28;20500;-46
2023/10/07 03:38:50;;;;;;;18.80;5.30;;;17.00;99.90;;;;;;5002331;28;20057;-46
2023/10/07 03:41:21;;;;;;;14.07;6.07;;;17.00;99.90;;;;;;5020491;28;20041;-50
2023/10/07 03:43:47;;;;;;;13.77;5.00;;;17.00;99.90;;;;;;5020066;28;20056;-46
2023/10/07 03:46:16;;;;;;;18.05;5.85;;;17.00;99.90;;;;;;5019687;28;20045;-45
2023/10/07 03:48:53;;;;;;;20.60;5.88;;;17.00;99.90;;;;;;5019954;28;20100;-48
2023/10/07 03:51:21;;;;;;;13.10;5.15;;;17.00;99.90;;;;;;5019528;28;20045;-47
2023/10/07 03:53:49;;;;;;;13.98;5.35;;;17.00;99.90;;;;;;5019290;28;20041;-46
2023/10/07 03:56:14;;;;;;;15.63;5.03;;;17.00;99.90;;;;;;5019792;28;20590;-45
2023/10/07 03:58:43;;;;;;;16.20;4.82;;;17.00;99.90;;;;;;5020527;28;20045;-48
2023/10/07 04:01:28;;;;;;;15.75;4.72;;;17.00;99.90;;;;;;5019987;28;20455;-48
2023/10/07 04:03:59;;;;;;;14.30;4.45;;;17.00;99.90;;;;;;5011147;28;20056;-46
2023/10/07 04:06:32;;;;;;;17.83;5.05;;;17.00;99.90;;;;;;5019663;28;20045;-49
2023/10/07 04:09:08;;;;;;;19.00;5.82;;;17.00;99.90;;;;;;5020165;28;20049;-47
2023/10/07 04:11:36;;;;;;;17.05;5.28;;;17.00;99.90;;;;;;5017428;28;20049;-46
2023/10/07 04:14:19;;;;;;;15.68;4.78;;;17.00;99.90;;;;;;5001707;28;20046;-46
2023/10/07 04:16:48;;;;;;;16.70;5.07;;;17.00;99.90;;;;;;5019953;28;20076;-44
2023/10/07 04:21:43;;;;;;;17.42;4.78;;;17.00;99.90;;;;;;5019429;28;20056;-49
2023/10/07 04:24:10;;;;;;;13.27;4.25;;;17.00;99.90;;;;;;5002141;28;20053;-46
2023/10/07 04:26:40;;;;;;;17.85;5.28;;;17.00;99.90;;;;;;5019989;28;20053;-44
2023/10/07 04:29:08;;;;;;;17.38;5.30;;;17.00;99.90;;;;;;5019934;28;20172;-46
2023/10/07 04:31:37;;;;;;;23.45;5.55;;;17.00;99.90;;;;;;5001651;28;20087;-49
2023/10/07 04:34:13;;;;;;;12.85;4.22;;;17.00;99.90;;;;;;5001117;28;20049;-47
2023/10/07 04:39:28;;;;;;;16.05;4.72;;;17.00;99.90;;;;;;5012655;28;20054;-44
2023/10/07 04:41:59;;;;;;;17.35;5.20;;;17.00;99.90;;;;;;5005302;28;20073;-46
2023/10/07 04:50:15;;;;;;;20.73;5.25;;;17.00;99.90;;;;;;5023573;28;20049;-45
2023/10/07 04:52:42;;;;;;;21.55;5.22;;;16.90;99.90;;;;;;5037783;28;20514;-48
2023/10/07 04:55:19;;;;;;;15.48;4.32;;;16.90;99.90;;;;;;5023605;28;20034;-45
2023/10/07 05:03:01;;;;;;;14.33;4.00;;;16.90;99.90;;;;;;5003932;28;20054;-46
2023/10/07 05:05:30;;;;;;;16.00;4.45;;;16.90;99.90;;;;;;5005469;28;20045;-46
2023/10/07 05:08:17;;;;;;;15.55;4.85;;;16.90;99.90;;;;;;5005410;28;20092;-49
2023/10/07 05:10:43;;;;;;;12.40;4.30;;;16.80;99.90;;;;;;5004893;28;20100;-44
2023/10/07 05:13:10;;;;;;;12.45;4.35;;;16.80;99.90;;;;;;5004810;28;20034;-46
2023/10/07 05:15:39;;;;;;;13.55;4.60;;;16.80;99.90;;;;;;5022724;28;20041;-46
2023/10/07 05:18:05;;;;;;;17.25;5.50;;;16.70;99.90;;;;;;5022933;28;20049;-45
2023/10/07 05:20:37;;;;;;;14.10;5.00;;;16.70;99.90;;;;;;5004667;28;20045;-48
2023/10/07 05:23:04;;;;;;;18.73;5.53;;;16.60;99.90;;;;;;5022163;28;20061;-45
2023/10/07 05:25:38;;;;;;;17.10;4.90;;;16.60;99.90;;;;;;5022422;28;20504;-48
2023/10/07 05:28:10;;;;;;;17.05;5.38;;;16.60;99.90;;;;;;5038359;28;20456;-46
2023/10/07 05:30:50;;;;;;;21.85;5.63;;;16.60;99.90;;;;;;5004541;28;20045;-50
2023/10/07 05:33:25;;;;;;;13.98;4.47;;;16.60;99.90;;;;;;5021491;28;20055;-47
2023/10/07 05:35:54;;;;;;;16.17;5.70;;;16.60;99.90;;;;;;4988100;28;20037;-47
2023/10/07 05:38:19;;;;;;;16.25;5.10;;;16.60;99.90;;;;;;5004684;28;20045;-47
2023/10/07 05:40:47;;;;;;;18.08;4.65;;;16.60;99.90;;;;;;5022328;28;20124;-45
2023/10/07 05:43:13;;;;;;;15.15;5.28;;;16.60;99.90;;;;;;5003767;28;20045;-46
2023/10/07 05:45:40;;;;;;;15.43;5.53;;;16.60;99.90;;;;;;5022108;28;20380;-47
2023/10/07 05:48:08;;;;;;;14.43;4.30;;;16.60;99.90;;;;;;5002924;28;20072;-45
2023/10/07 05:50:34;;;;;;;13.95;5.00;;;16.60;99.90;;;;;;5009880;28;20043;-47
2023/10/07 05:53:04;;;;;;;16.80;5.82;;;16.60;99.90;;;;;;5021281;28;20056;-47
2023/10/07 05:55:33;;;;;;;16.90;5.78;;;16.60;99.90;;;;;;5021808;28;20532;-49
2023/10/07 05:58:01;;;;;;;17.92;5.70;;;16.60;99.90;;;;;;5021314;28;20137;-49
2023/10/07 06:00:31;;;;;;;19.75;5.55;;;16.60;99.90;;;;;;5004029;28;20053;-49
2023/10/07 06:02:59;;;;;;;22.17;6.55;;;16.60;99.90;;;;;;5001554;28;20508;-46
2023/10/07 06:05:27;;;;;;;19.10;5.72;;;16.60;99.90;;;;;;5021472;28;20436;-47
2023/10/07 06:07:59;;;;;;;18.45;5.57;;;16.60;99.90;;;;;;4986444;28;20042;-46
2023/10/07 06:10:24;;;;;;;18.52;5.25;;;16.60;99.90;;;;;;5020638;28;20037;-45
2023/10/07 06:12:53;;;;;;;17.92;5.75;;;16.60;99.90;;;;;;5019693;28;20042;-45
2023/10/07 06:15:25;;;;;;;14.23;5.80;;;16.60;99.90;;;;;;5021909;28;20069;-45
2023/10/07 06:17:51;;;;;;;22.70;5.50;;;16.60;99.90;;;;;;4987070;28;20527;-49
2023/10/07 06:20:26;;;;;;;22.92;5.85;;;16.60;99.90;;;;;;5021756;28;20051;-47
2023/10/07 06:22:56;;;;;;;14.02;5.22;;;16.60;99.90;;;;;;5020467;28;20408;-46
2023/10/07 06:25:30;;;;;;;20.33;5.90;;;16.60;99.90;;;;;;5003145;28;20077;-44
2023/10/07 06:27:59;;;;;;;18.30;5.65;;;16.70;99.90;;;;;;5002376;28;20045;-46
2023/10/07 06:30:26;;;;;;;15.63;6.20;;;16.70;99.90;;;;;;4986252;28;20049;-48
2023/10/07 06:32:55;;;;;;;22.48;6.57;;;16.70;99.90;;;;;;5002791;28;20493;-46
2023/10/07 06:35:25;;;;;;;15.27;5.50;;;16.70;99.90;;;;;;5001197;28;20072;-47
2023/10/07 06:37:57;;;;;;;13.55;4.95;;;16.70;99.90;;;;;;5020630;28;20049;-49
2023/10/07 06:40:29;;;;;;;13.98;5.30;;;16.70;99.90;;;;;;5020916;28;20053;-47
2023/10/07 06:42:58;;;;;;;18.03;6.27;;;16.80;99.90;;;;;;5020331;28;20480;-46
2023/10/07 06:45:35;;;;;;;20.63;6.80;;;16.80;99.90;;;;;;5020802;28;20385;-48
2023/10/07 06:48:09;;;;;;;15.23;5.38;;;16.80;99.90;;;;;;5019556;28;20049;-47
2023/10/07 06:50:35;;;;;;;16.10;5.25;;;16.80;99.90;;;;;;5006885;28;20124;-45
2023/10/07 06:53:02;;;;;;;20.75;6.13;;;16.90;99.90;;;;;;5017996;28;20061;-46
2023/10/07 06:55:35;;;;;;;19.48;6.03;;;16.90;99.90;;;;;;5001109;28;20081;-46
2023/10/07 06:58:03;;;;;;;24.03;6.73;;;16.90;99.90;;;;;;5018611;28;20115;-46
2023/10/07 07:00:46;;;;;;;15.85;5.05;;;17.00;99.90;;;;;;5019135;28;20298;-44
2023/10/07 07:03:18;;;;;;;19.48;6.50;;;17.10;99.90;;;;;;4992306;28;20352;-46
2023/10/07 07:05:54;;;;;;;19.10;7.15;;;17.20;99.90;;;;;;5020802;28;20139;-49
2023/10/07 07:08:22;;;;;;;15.70;6.13;;;17.30;99.90;;;;;;5020214;28;20045;-45
2023/10/07 07:10:55;;;;;;;19.90;5.32;;;17.30;99.90;;;;;;5020723;28;20045;-47
2023/10/07 07:13:26;;;;;;;16.88;5.88;;;17.30;99.90;;;;;;4980551;28;20068;-45
2023/10/07 07:16:06;;;;;;;13.95;5.65;;;17.30;99.90;;;;;;5020212;28;20564;-46
2023/10/07 07:18:32;;;;;;;16.63;6.20;;;17.30;99.90;;;;;;5020740;28;20493;-45
2023/10/07 07:21:01;;;;;;;14.23;4.78;;;17.40;99.90;;;;;;5020641;28;20037;-46
2023/10/07 07:23:35;;;;;;;15.88;5.82;;;17.40;99.90;;;;;;5019652;28;20084;-46
2023/10/07 07:28:28;;;;;;;18.65;5.43;;;17.50;99.90;;;;;;5019995;28;20132;-44
2023/10/07 07:30:57;;;;;;;17.98;5.80;;;17.40;99.90;;;;;;5020429;28;20071;-46
2023/10/07 07:33:29;;;;;;;14.70;5.68;;;17.40;99.90;;;;;;5019650;28;20471;-46
2023/10/07 07:35:58;;;;;;;20.48;6.90;;;17.40;99.90;;;;;;5002206;28;20452;-46
2023/10/07 07:38:30;;;;;;;20.15;6.03;;;17.40;99.90;;;;;;5020104;28;20045;-45
2023/10/07 07:41:07;;;;;;;18.80;6.22;;;17.40;99.90;;;;;;5007923;28;20041;-44
2023/10/07 07:43:34;;;;;;;18.10;5.38;;;17.40;99.90;;;;;;5001512;28;20040;-45
2023/10/07 07:46:18;;;;;;;22.67;6.63;;;17.50;99.90;;;;;;4985725;28;20576;-44
2023/10/07 07:49:05;;;;;;;17.05;6.65;;;17.50;99.90;;;;;;4985555;28;20038;-47
2023/10/07 07:51:37;;;;;;;20.08;6.30;;;17.50;99.90;;;;;;5019296;28;20041;-45
2023/10/07 07:54:08;;;;;;;13.43;5.68;;;17.60;99.90;;;;;;5020288;28;20051;-45
2023/10/07 07:56:35;;;;;;;15.40;5.82;;;17.60;99.90;;;;;;5019966;28;20041;-44
2023/10/07 07:59:13;;;;;;;18.40;5.78;;;17.60;99.90;;;;;;5019270;28;20504;-45
2023/10/07 08:01:44;;;;;;;18.42;5.68;;;17.60;99.90;;;;;;5018534;28;20379;-46
2023/10/07 08:04:17;;;;;;;21.08;5.93;;;17.50;99.90;;;;;;5013324;28;20056;-46
2023/10/07 08:06:49;;;;;;;16.95;6.05;;;17.50;99.90;;;;;;5019239;28;20064;-47
2023/10/07 08:09:19;;;;;;;16.60;6.05;;;17.50;99.90;;;;;;5019089;28;20037;-47
2023/10/07 08:11:46;;;;;;;18.63;6.10;;;17.50;99.90;;;;;;5018553;28;20041;-47
2023/10/07 08:14:12;;;;;;;13.95;5.35;;;17.50;99.90;;;;;;5019371;28;20037;-46
2023/10/07 08:16:50;;;;;;;16.85;5.90;;;17.60;99.90;;;;;;5001476;28;20052;-47
2023/10/07 08:19:24;;;;;;;17.42;6.30;;;17.60;99.90;;;;;;5019404;28;20467;-48
2023/10/07 08:21:53;;;;;;;20.92;6.65;;;17.60;99.90;;;;;;5018970;28;20348;-45
2023/10/07 08:24:23;;;;;;;22.33;7.03;;;17.70;99.90;;;;;;5019285;28;20041;-49
2023/10/07 08:26:59;;;;;;;19.67;6.57;;;17.70;99.90;;;;;;5019584;28;20053;-45
2023/10/07 08:29:32;;;;;;;18.25;6.30;;;17.70;99.90;;;;;;5019258;28;20394;-49
2023/10/07 08:32:28;;;;;;;18.67;6.38;;;17.70;99.90;;;;;;5018386;28;20061;-45
2023/10/07 08:34:47;;;;;;;19.48;6.25;;;17.70;99.90;;;;;;5019693;28;20526;-45
2023/10/07 08:37:16;;;;;;;16.65;6.25;;;17.70;99.90;;;;;;5019624;28;20054;-50
2023/10/07 08:39:44;;;;;;;20.65;5.80;;;17.70;99.90;;;;;;5019321;28;20487;-46
2023/10/07 08:42:17;;;;;;;22.85;6.60;;;17.70;99.90;;;;;;5000599;28;20053;-47
2023/10/07 08:44:51;;;;;;;18.08;6.38;;;17.70;99.90;;;;;;5019245;28;20049;-46
2023/10/07 08:47:20;;;;;;;17.70;5.68;;;17.80;99.90;;;;;;5006623;28;20404;-48
2023/10/07 08:49:48;;;;;;;19.88;6.20;;;17.90;99.90;;;;;;5001834;28;20815;-48
2023/10/07 08:52:16;;;;;;;22.40;6.40;;;18.00;99.90;;;;;;5018171;28;20045;-49
2023/10/07 08:54:44;;;;;;;16.80;5.80;;;18.00;99.90;;;;;;5020179;28;20049;-46
2023/10/07 08:57:22;;;;;;;18.17;6.85;;;18.10;99.90;;;;;;5019839;28;20072;-45
2023/10/07 08:59:52;;;;;;;23.08;8.40;;;18.20;99.90;;;;;;4984637;28;20080;-49
2023/10/07 09:02:30;;;;;;;16.13;5.68;;;18.30;99.90;;;;;;5012942;28;20124;-46
2023/10/07 09:04:57;;;;;;;21.25;5.90;;;18.40;99.90;;;;;;5018240;28;20113;-44
2023/10/07 09:07:30;;;;;;;20.20;6.78;;;18.50;99.90;;;;;;5019309;28;20111;-45
2023/10/07 09:10:06;;;;;;;15.90;6.15;;;18.70;99.90;;;;;;5001026;28;20079;-45
2023/10/07 09:12:38;;;;;;;20.10;7.00;;;18.70;99.90;;;;;;5000093;28;20048;-46
2023/10/07 09:15:12;;;;;;;19.75;6.65;;;18.80;99.90;;;;;;5019153;28;20037;-45
2023/10/07 09:17:41;;;;;;;20.63;6.03;;;18.80;99.90;;;;;;5019128;28;20077;-45
2023/10/07 09:20:17;;;;;;;18.45;6.03;;;19.00;99.90;;;;;;5019074;28;20041;-45
2023/10/07 09:22:47;;;;;;;18.60;7.15;;;19.10;99.90;;;;;;5021411;28;20049;-46
2023/10/07 09:25:29;;;;;;;17.55;6.25;;;19.20;99.90;;;;;;5022415;28;20051;-45
2023/10/07 09:28:01;;;;;;;14.38;6.10;;;19.30;99.90;;;;;;5011314;28;20087;-46
2023/10/07 09:30:50;;;;;;;20.17;6.43;;;19.40;99.90;;;;;;5022037;28;20064;-45
2023/10/07 09:33:18;;;;;;;15.55;5.55;;;19.50;99.90;;;;;;5003652;28;20049;-48
2023/10/07 09:35:46;;;;;;;17.15;5.97;;;19.40;99.90;;;;;;5004643;28;20073;-45
2023/10/07 09:38:22;;;;;;;15.20;5.72;;;19.30;99.90;;;;;;5022895;28;20106;-45
2023/10/07 09:41:11;;;;;;;16.27;6.18;;;19.30;99.90;;;;;;5005917;28;20515;-45
2023/10/07 09:43:38;;;;;;;20.83;6.78;;;19.20;99.90;;;;;;5022015;28;20135;-45
2023/10/07 09:46:07;;;;;;;19.83;6.25;;;19.30;99.90;;;;;;5022762;28;20037;-45
2023/10/07 09:48:33;;;;;;;16.00;7.07;;;19.30;99.90;;;;;;5004267;28;20041;-46
2023/10/07 09:51:01;;;;;;;14.05;5.78;;;19.30;99.90;;;;;;5004364;28;20139;-45
2023/10/07 09:53:46;;;;;;;15.75;6.18;;;19.30;99.90;;;;;;5003865;28;20083;-44
2023/10/07 09:56:58;;;;;;;18.63;5.97;;;19.30;99.90;;;;;;5001110;28;20049;-48
2023/10/07 09:59:33;;;;;;;16.05;6.80;;;19.20;99.90;;;;;;4971285;28;20060;-47
2023/10/07 10:02:16;;;;;;;14.60;5.65;;;19.30;99.90;;;;;;5018571;28;20417;-47
2023/10/07 10:04:57;;;;;;;19.38;7.15;;;19.20;99.90;;;;;;5019466;28;20508;-45
2023/10/07 10:07:47;;;;;;;18.73;6.60;;;19.20;99.90;;;;;;5004447;28;20091;-47
2023/10/07 10:10:14;;;;;;;16.48;6.50;;;19.20;99.90;;;;;;5003784;28;20555;-45
2023/10/07 10:12:56;;;;;;;19.38;6.18;;;19.20;99.90;;;;;;5020983;28;20487;-46
2023/10/07 10:21:02;;;;;;;16.65;6.22;;;19.10;99.90;;;;;;5021766;28;20045;-46
2023/10/07 10:23:33;;;;;;;16.77;5.72;;;19.10;99.90;;;;;;5021352;28;20048;-46
2023/10/07 10:26:14;;;;;;;16.40;6.00;;;19.10;99.90;;;;;;5021381;28;20504;-47
2023/10/07 10:28:55;;;;;;;18.50;6.43;;;19.10;99.90;;;;;;5021378;28;20054;-46
2023/10/07 10:31:21;;;;;;;14.88;6.03;;;19.10;99.90;;;;;;5003010;28;20385;-46
2023/10/07 10:33:49;;;;;;;16.50;6.10;;;19.20;99.90;;;;;;5002665;28;20087;-47
2023/10/07 10:36:19;;;;;;;16.55;6.85;;;19.30;99.90;;;;;;5021637;28;20099;-47
2023/10/07 10:38:47;;;;;;;18.40;6.50;;;19.30;99.90;;;;;;5021130;28;20698;-44
2023/10/07 10:41:13;;;;;;;16.45;6.50;;;19.40;99.90;;;;;;5020467;28;20037;-45
2023/10/07 10:43:39;;;;;;;18.55;6.10;;;19.40;99.90;;;;;;5021881;28;20389;-47
2023/10/07 10:46:06;;;;;;;13.23;6.18;;;19.50;99.90;;;;;;5003263;28;20180;-45
2023/10/07 10:48:34;;;;;;;17.00;6.38;;;19.50;99.90;;;;;;5021829;28;20045;-46
2023/10/07 10:51:05;;;;;;;18.33;7.22;;;19.50;99.90;;;;;;5021404;28;20416;-46
2023/10/07 10:53:40;;;;;;;13.85;6.18;;;19.60;99.90;;;;;;5003146;28;20052;-46
2023/10/07 10:56:07;;;;;;;14.85;5.75;;;19.60;99.90;;;;;;5003005;28;20051;-45
2023/10/07 10:58:36;;;;;;;18.30;6.85;;;19.70;99.90;;;;;;5023163;28;20053;-45
2023/10/07 11:01:05;;;;;;;15.00;6.03;;;19.70;99.90;;;;;;5020410;28;20062;-46
2023/10/07 11:03:33;;;;;;;15.75;6.35;;;19.80;99.90;;;;;;5013154;28;20049;-46
2023/10/07 11:06:00;;;;;;;16.52;6.05;;;19.90;99.90;;;;;;5003006;28;20094;-46
2023/10/07 11:08:26;;;;;;;18.75;7.30;;;20.00;99.90;;;;;;5020938;28;20045;-49
2023/10/07 11:11:01;;;;;;;19.00;7.15;;;20.00;99.90;;;;;;5002605;28;20050;-48
2023/10/07 11:13:29;;;;;;;15.82;5.93;;;20.00;99.90;;;;;;5020438;28;20042;-47
2023/10/07 11:16:10;;;;;;;19.40;5.40;;;19.80;99.90;;;;;;5020122;28;20044;-48
2023/10/07 11:18:45;;;;;;;17.83;7.00;;;19.90;99.90;;;;;;5002724;28;20041;-48
2023/10/07 11:21:12;;;;;;;14.60;5.88;;;20.00;99.90;;;;;;5019565;28;20152;-46
2023/10/07 11:23:52;;;;;;;20.02;5.97;;;20.00;99.90;;;;;;5020428;28;20497;-46
2023/10/07 11:26:24;;;;;;;15.68;6.50;;;20.00;99.90;;;;;;5020294;28;20094;-47
2023/10/07 11:28:51;;;;;;;14.75;6.50;;;19.90;99.90;;;;;;5004097;28;20521;-47
2023/10/07 11:31:30;;;;;;;15.38;7.43;;;19.90;99.90;;;;;;5018992;28;20489;-45
2023/10/07 11:33:57;;;;;;;15.50;5.88;;;19.90;99.90;;;;;;5018502;28;20049;-45
2023/10/07 11:36:23;;;;;;;18.15;6.35;;;19.80;99.90;;;;;;5011858;28;20053;-46
2023/10/07 11:38:48;;;;;;;14.75;5.82;;;19.90;99.90;;;;;;5020652;28;20037;-47
2023/10/07 11:41:16;;;;;;;16.17;6.53;;;19.90;99.90;;;;;;5019416;28;20076;-46
2023/10/07 11:43:47;;;;;;;14.52;6.05;;;20.00;99.90;;;;;;5020781;28;20048;-48
2023/10/07 11:46:13;;;;;;;15.68;5.88;;;20.00;99.90;;;;;;5019756;28;20041;-46
2023/10/07 11:48:41;;;;;;;13.27;5.65;;;20.00;99.90;;;;;;5015417;28;20060;-48
2023/10/07 11:51:07;;;;;;;15.05;6.25;;;20.00;99.90;;;;;;5019050;28;20352;-46
2023/10/07 11:53:34;;;;;;;19.13;6.03;;;20.00;99.90;;;;;;5019691;28;20107;-45
2023/10/07 11:56:05;;;;;;;17.73;5.90;;;20.00;99.90;;;;;;5020228;28;20182;-46
2023/10/07 11:58:32;;;;;;;16.80;6.47;;;19.90;99.90;;;;;;5019234;28;20107;-46
2023/10/07 12:00:58;;;;;;;15.38;6.22;;;19.80;99.90;;;;;;5019156;28;20385;-44
2023/10/07 12:03:25;;;;;;;16.50;7.05;;;19.80;99.90;;;;;;5009897;28;20045;-45
2023/10/07 12:05:51;;;;;;;13.27;6.20;;;19.90;99.90;;;;;;5020358;28;20334;-45
2023/10/07 12:08:19;;;;;;;19.45;6.50;;;20.10;99.90;;;;;;5015333;28;20077;-48
2023/10/07 12:10:45;;;;;;;13.60;5.68;;;20.30;99.90;;;;;;5000622;28;20046;-46
2023/10/07 12:13:11;;;;;;;19.52;6.75;;;20.40;99.90;;;;;;5003703;28;20037;-46
2023/10/07 12:15:42;;;;;;;17.25;5.97;;;20.50;99.90;;;;;;5019725;28;20540;-47
2023/10/07 12:18:13;;;;;;;15.90;5.45;;;20.50;99.90;;;;;;5019846;28;20175;-45
2023/10/07 12:20:40;;;;;;;14.40;5.35;;;20.40;99.90;;;;;;5006875;28;20136;-45
2023/10/07 12:23:07;;;;;;;16.52;5.95;;;20.50;99.90;;;;;;5009585;28;20047;-46
2023/10/07 12:25:35;;;;;;;16.58;6.28;;;20.30;99.90;;;;;;5019902;28;20488;-46
2023/10/07 12:28:05;;;;;;;16.48;6.40;;;20.20;99.90;;;;;;5006184;28;20168;-45
2023/10/07 12:30:31;;;;;;;22.13;6.65;;;20.10;99.90;;;;;;5027581;28;20050;-45
2023/10/07 12:32:57;;;;;;;18.40;6.90;;;20.10;99.90;;;;;;5017938;28;20038;-47
2023/10/07 12:35:24;;;;;;;12.40;6.00;;;20.10;99.90;;;;;;5018349;28;20041;-45
2023/10/07 12:37:52;;;;;;;14.55;6.10;;;20.10;99.90;;;;;;5018807;28;20041;-46
2023/10/07 12:40:18;;;;;;;14.90;6.30;;;20.00;99.90;;;;;;5001405;28;20046;-46
2023/10/07 12:42:51;;;;;;;16.08;6.93;;;19.80;99.90;;;;;;4983883;28;20544;-45
2023/10/07 12:45:18;;;;;;;18.67;6.25;;;19.70;99.90;;;;;;5019128;28;20050;-47
2023/10/07 12:47:44;;;;;;;18.10;6.60;;;19.60;99.90;;;;;;5017051;28;20045;-44
2023/10/07 12:50:29;;;;;;;20.55;6.80;;;19.60;99.90;;;;;;5033796;28;20052;-45
2023/10/07 12:53:01;;;;;;;18.20;6.63;;;19.50;99.90;;;;;;5017633;28;20057;-45
2023/10/07 12:55:34;;;;;;;14.00;6.40;;;19.50;99.90;;;;;;5014002;28;20491;-46
2023/10/07 12:58:05;;;;;;;15.23;6.30;;;19.40;99.90;;;;;;5020125;28;20041;-46
2023/10/07 13:00:33;;;;;;;16.10;6.13;;;19.40;99.90;;;;;;5005798;28;20594;-46
2023/10/07 13:03:04;;;;;;;14.32;6.03;;;19.40;99.90;;;;;;5017335;28;20095;-48
2023/10/07 13:05:37;;;;;;;15.52;6.05;;;19.40;99.90;;;;;;5014610;28;20449;-46
2023/10/07 13:08:15;;;;;;;16.45;6.15;;;19.40;99.90;;;;;;5028144;28;20128;-46
2023/10/07 13:10:41;;;;;;;22.58;6.45;;;19.40;99.90;;;;;;4998538;28;20072;-48
2023/10/07 13:13:07;;;;;;;16.85;6.00;;;19.30;99.90;;;;;;5022345;28;20393;-46
2023/10/07 13:15:34;;;;;;;17.27;5.95;;;19.30;99.90;;;;;;5023795;28;20037;-45
2023/10/07 13:18:03;;;;;;;14.82;5.57;;;19.30;99.90;;;;;;5001109;28;20051;-48
2023/10/07 13:20:33;;;;;;;16.40;6.40;;;19.30;99.90;;;;;;5022452;28;20569;-45
2023/10/07 13:23:00;;;;;;;19.38;7.18;;;19.30;99.90;;;;;;5022716;28;20589;-45
2023/10/07 13:25:27;;;;;;;14.45;6.60;;;19.20;99.90;;;;;;5016911;28;20076;-45
2023/10/07 13:27:56;;;;;;;14.77;6.53;;;19.20;99.90;;;;;;5023668;28;20045;-44
2023/10/07 13:30:24;;;;;;;12.43;5.93;;;19.30;99.90;;;;;;5021783;28;20119;-46
2023/10/07 13:32:52;;;;;;;17.00;6.32;;;19.40;99.90;;;;;;5036307;28;20472;-49
2023/10/07 13:35:19;;;;;;;12.70;6.18;;;19.50;99.90;;;;;;5004905;28;20596;-46